Time;durP1;ratioP1;P1;durP2;ratioP2;P2;SDS_P1;SDS_P2;PMS_P1;PMS_P2;Temp;Humidity;BMP_temperature;BMP_pressure;BME280_temperature;BME280_humidity;BME280_pressure;Samples;Min_cycle;Max_cycle;Signal;HPM_P1;HPM_P2
2023/10/04 00:01:21;;;;;;;0.30;0.20;;;;;;;10.91;100.00;101374.50;4993216;28;20940;-49
2023/10/04 00:03:47;;;;;;;0.40;0.20;;;;;;;10.93;100.00;101372.69;4993284;28;20568;-49
2023/10/04 00:06:14;;;;;;;0.40;0.20;;;;;;;10.87;100.00;101375.44;4993604;28;20504;-50
2023/10/04 00:08:40;;;;;;;0.40;0.20;;;;;;;10.98;100.00;101364.66;4989533;28;20489;-50
2023/10/04 00:11:12;;;;;;;0.30;0.20;;;;;;;10.94;100.00;101374.44;4973958;28;20512;-50
2023/10/04 00:13:43;;;;;;;0.30;0.20;;;;;;;10.84;100.00;101367.50;4992005;28;20919;-50
2023/10/04 00:16:10;;;;;;;0.40;0.20;;;;;;;10.75;100.00;101370.28;4987049;28;20820;-50
2023/10/04 00:18:37;;;;;;;0.30;0.20;;;;;;;10.66;100.00;101365.94;4992982;28;20480;-50
2023/10/04 00:21:06;;;;;;;0.30;0.20;;;;;;;10.47;100.00;101364.38;4993049;28;20445;-50
2023/10/04 00:23:33;;;;;;;0.30;0.20;;;;;;;10.50;100.00;101380.28;4993384;28;20460;-49
2023/10/04 00:25:59;;;;;;;0.40;0.20;;;;;;;10.47;100.00;101374.13;4992717;28;20957;-52
2023/10/04 00:28:25;;;;;;;0.40;0.20;;;;;;;10.72;100.00;101380.06;4992926;28;20561;-50
2023/10/04 00:30:52;;;;;;;0.40;0.20;;;;;;;10.63;100.00;101384.59;4979798;28;20861;-50
2023/10/04 00:33:19;;;;;;;0.30;0.20;;;;;;;10.58;100.00;101391.75;4992866;28;20453;-50
2023/10/04 00:35:46;;;;;;;0.40;0.20;;;;;;;10.57;100.00;101392.63;4992903;28;20450;-50
2023/10/04 00:38:14;;;;;;;0.40;0.20;;;;;;;10.47;100.00;101392.75;4989804;28;21084;-50
2023/10/04 00:40:41;;;;;;;0.30;0.20;;;;;;;10.65;100.00;101392.53;4992415;28;20477;-50
2023/10/04 00:43:13;;;;;;;0.40;0.20;;;;;;;10.72;100.00;101394.25;4993053;28;20445;-50
2023/10/04 00:45:45;;;;;;;0.30;0.20;;;;;;;10.63;100.00;101400.53;4979819;28;20511;-50
2023/10/04 00:48:13;;;;;;;0.30;0.20;;;;;;;10.59;100.00;101403.25;4992671;28;20461;-50
2023/10/04 00:50:40;;;;;;;0.40;0.20;;;;;;;10.71;100.00;101403.13;4992520;28;20493;-51
2023/10/04 00:53:13;;;;;;;0.30;0.20;;;;;;;10.76;100.00;101411.91;4992585;28;20548;-49
2023/10/04 00:55:45;;;;;;;0.30;0.20;;;;;;;10.56;100.00;101408.63;4992625;28;20536;-50
2023/10/04 00:58:17;;;;;;;0.30;0.20;;;;;;;10.63;100.00;101411.16;4992269;28;20473;-49
2023/10/04 01:00:44;;;;;;;0.33;0.20;;;;;;;10.33;100.00;101415.03;4992364;28;20533;-49
2023/10/04 01:03:13;;;;;;;0.30;0.20;;;;;;;10.60;100.00;101413.00;4992460;28;20460;-50
2023/10/04 01:05:47;;;;;;;0.30;0.20;;;;;;;10.46;100.00;101415.78;4992402;28;20449;-50
2023/10/04 01:08:15;;;;;;;0.30;0.20;;;;;;;10.36;100.00;101417.66;4992434;28;20525;-50
2023/10/04 01:10:44;;;;;;;0.30;0.20;;;;;;;10.30;100.00;101423.03;4962495;28;20898;-53
2023/10/04 01:13:11;;;;;;;0.30;0.20;;;;;;;10.14;100.00;101418.69;4988219;28;20516;-53
2023/10/04 01:15:39;;;;;;;0.30;0.20;;;;;;;10.24;100.00;101422.19;4986176;28;20450;-53
2023/10/04 01:18:09;;;;;;;0.30;0.20;;;;;;;10.19;100.00;101430.19;4992222;28;20473;-53
2023/10/04 01:20:38;;;;;;;0.40;0.20;;;;;;;10.06;100.00;101420.56;4992260;28;20970;-53
2023/10/04 01:23:07;;;;;;;0.40;0.20;;;;;;;9.99;100.00;101432.09;4992429;28;20812;-53
2023/10/04 01:25:35;;;;;;;0.30;0.20;;;;;;;9.75;100.00;101433.19;4992431;28;20453;-53
2023/10/04 01:28:17;;;;;;;0.30;0.20;;;;;;;9.90;100.00;101429.53;4992052;28;20971;-52
2023/10/04 01:30:45;;;;;;;0.30;0.20;;;;;;;9.92;100.00;101433.06;4979659;28;20486;-53
2023/10/04 01:33:16;;;;;;;0.30;0.20;;;;;;;9.90;100.00;101426.88;4966985;28;20540;-53
2023/10/04 01:35:45;;;;;;;0.40;0.20;;;;;;;9.92;100.00;101430.41;4992491;28;20473;-53
2023/10/04 01:38:13;;;;;;;0.30;0.20;;;;;;;9.94;100.00;101429.50;4990038;28;20520;-53
2023/10/04 01:40:42;;;;;;;0.30;0.20;;;;;;;9.91;100.00;101424.22;4992175;28;20485;-52
2023/10/04 01:43:15;;;;;;;0.30;0.20;;;;;;;9.95;100.00;101436.56;4992216;28;20453;-53
2023/10/04 01:45:58;;;;;;;0.30;0.20;;;;;;;9.72;100.00;101436.72;4981206;28;20533;-52
2023/10/04 01:48:30;;;;;;;0.30;0.20;;;;;;;9.83;100.00;101441.06;4996113;28;20821;-53
2023/10/04 01:51:02;;;;;;;0.30;0.20;;;;;;;9.71;100.00;101444.69;4995898;28;20491;-52
2023/10/04 01:53:29;;;;;;;0.30;0.20;;;;;;;9.72;100.00;101436.72;4995688;28;20463;-51
2023/10/04 01:55:56;;;;;;;0.30;0.20;;;;;;;9.83;100.00;101441.97;4995661;28;20564;-52
2023/10/04 01:58:25;;;;;;;0.30;0.20;;;;;;;9.85;100.00;101440.16;4995677;28;20469;-51
2023/10/04 02:00:53;;;;;;;0.30;0.20;;;;;;;9.90;100.00;101441.03;4995809;28;20466;-52
2023/10/04 02:03:20;;;;;;;0.30;0.20;;;;;;;9.92;100.00;101438.38;4995574;28;20453;-52
2023/10/04 02:05:48;;;;;;;0.30;0.20;;;;;;;9.87;100.00;101427.78;4995575;28;20930;-52
2023/10/04 02:08:15;;;;;;;0.30;0.20;;;;;;;9.62;100.00;101440.34;4995090;28;20508;-52
2023/10/04 02:10:41;;;;;;;0.30;0.20;;;;;;;9.72;100.00;101436.72;4964540;28;20509;-53
2023/10/04 02:13:15;;;;;;;0.30;0.20;;;;;;;9.69;100.00;101423.47;4990326;28;20822;-52
2023/10/04 02:15:44;;;;;;;0.30;0.20;;;;;;;9.78;100.00;101423.41;4989125;28;20458;-52
2023/10/04 02:18:10;;;;;;;0.30;0.20;;;;;;;9.78;100.00;101414.56;4995175;28;20908;-52
2023/10/04 02:20:37;;;;;;;0.30;0.20;;;;;;;9.83;100.00;101415.41;4995174;28;20452;-52
2023/10/04 02:23:07;;;;;;;0.30;0.30;;;;;;;9.77;100.00;101416.34;4995355;28;20460;-52
2023/10/04 02:25:33;;;;;;;0.30;0.20;;;;;;;9.94;100.00;101418.00;4995460;28;20452;-52
2023/10/04 02:28:03;;;;;;;0.30;0.20;;;;;;;10.01;100.00;101419.72;4995106;28;20523;-52
2023/10/04 02:30:30;;;;;;;0.30;0.20;;;;;;;9.92;100.00;101414.47;4984681;28;20525;-52
2023/10/04 02:32:57;;;;;;;0.30;0.20;;;;;;;10.01;100.00;101415.28;4992949;28;20456;-52
2023/10/04 02:35:27;;;;;;;0.30;0.20;;;;;;;9.86;100.00;101418.03;4994938;28;20536;-52
2023/10/04 02:38:00;;;;;;;0.30;0.20;;;;;;;9.90;100.00;101421.56;4992166;28;20474;-52
2023/10/04 02:40:27;;;;;;;0.30;0.20;;;;;;;9.94;100.00;101425.97;4995146;28;20878;-52
2023/10/04 02:42:55;;;;;;;0.30;0.20;;;;;;;9.86;100.00;101418.03;4969340;28;20548;-52
2023/10/04 02:45:24;;;;;;;0.30;0.20;;;;;;;9.77;100.00;101416.34;4965269;28;20461;-51
2023/10/04 02:47:52;;;;;;;0.30;0.20;;;;;;;10.01;100.00;101417.94;4982208;28;20505;-52
2023/10/04 02:50:20;;;;;;;0.30;0.20;;;;;;;9.97;100.00;101418.84;4994645;28;20974;-51
2023/10/04 02:52:47;;;;;;;0.30;0.20;;;;;;;10.09;100.00;101423.19;4994817;28;20508;-52
2023/10/04 02:55:17;;;;;;;0.30;0.20;;;;;;;9.94;100.00;101420.63;4994552;28;20947;-52
2023/10/04 02:57:51;;;;;;;0.30;0.20;;;;;;;9.97;100.00;101416.19;4993349;28;20847;-52
2023/10/04 03:00:20;;;;;;;0.30;0.20;;;;;;;9.85;100.00;101420.69;4994388;28;20545;-52
2023/10/04 03:02:50;;;;;;;0.30;0.20;;;;;;;9.86;100.00;101422.47;4994800;28;20814;-52
2023/10/04 03:05:20;;;;;;;0.30;0.20;;;;;;;9.94;100.00;101423.31;4994505;28;20449;-52
2023/10/04 03:07:50;;;;;;;0.30;0.20;;;;;;;9.75;100.00;101411.94;4994398;28;20508;-51
2023/10/04 03:10:24;;;;;;;0.40;0.20;;;;;;;9.75;100.00;101412.81;4978044;28;20489;-51
2023/10/04 03:12:52;;;;;;;0.30;0.20;;;;;;;9.69;100.00;101407.53;4987525;28;20495;-52
2023/10/04 03:15:23;;;;;;;0.30;0.20;;;;;;;9.89;100.00;101399.44;4973888;28;21042;-52
2023/10/04 03:17:51;;;;;;;0.30;0.20;;;;;;;9.75;100.00;101396.91;4994281;28;20497;-51
2023/10/04 03:20:21;;;;;;;0.30;0.20;;;;;;;9.78;100.00;101401.28;4994250;28;20446;-51
2023/10/04 03:22:49;;;;;;;0.30;0.20;;;;;;;9.66;100.00;101407.56;4994100;28;20442;-52
2023/10/04 03:25:17;;;;;;;0.30;0.20;;;;;;;9.55;100.00;101403.22;4994011;28;20536;-51
2023/10/04 03:27:44;;;;;;;0.30;0.20;;;;;;;9.51;100.00;101407.66;4993735;28;20840;-52
2023/10/04 03:30:15;;;;;;;0.30;0.20;;;;;;;9.45;100.00;101403.25;4985816;28;20446;-51
2023/10/04 03:32:50;;;;;;;0.30;0.20;;;;;;;9.46;100.00;101406.84;4989848;28;20490;-52
2023/10/04 03:35:17;;;;;;;0.30;0.20;;;;;;;9.19;100.00;101406.09;4994023;28;20802;-52
2023/10/04 03:37:54;;;;;;;0.30;0.20;;;;;;;9.17;100.00;101406.97;4990592;28;20517;-52
2023/10/04 03:40:22;;;;;;;0.30;0.20;;;;;;;9.29;100.00;101404.25;4994265;28;20488;-51
2023/10/04 03:42:49;;;;;;;0.30;0.20;;;;;;;9.10;100.00;101410.53;4993637;28;20540;-51
2023/10/04 03:45:18;;;;;;;0.30;0.20;;;;;;;9.04;100.00;101405.25;4982266;28;20456;-51
2023/10/04 03:47:50;;;;;;;0.30;0.20;;;;;;;9.19;100.00;101405.22;4993098;28;20465;-52
2023/10/04 03:50:17;;;;;;;0.30;0.20;;;;;;;9.08;100.00;101402.59;4993452;28;20457;-51
2023/10/04 03:52:44;;;;;;;0.30;0.20;;;;;;;9.12;100.00;101411.41;4993531;28;20909;-52
2023/10/04 03:55:11;;;;;;;0.30;0.20;;;;;;;8.94;100.00;101406.19;4993425;28;20938;-52
2023/10/04 03:57:42;;;;;;;0.30;0.20;;;;;;;9.00;100.00;101414.13;4993575;28;20473;-52
2023/10/04 04:00:13;;;;;;;1.07;1.03;;;;;;;8.82;100.00;101408.00;4993374;28;20450;-52
2023/10/04 04:02:40;;;;;;;0.30;0.20;;;;;;;8.84;100.00;101402.69;4993465;28;20470;-52
2023/10/04 04:05:09;;;;;;;0.30;0.20;;;;;;;8.92;100.00;101414.16;4993440;28;20461;-52
2023/10/04 04:07:36;;;;;;;0.30;0.20;;;;;;;8.80;100.00;101401.81;4993177;28;20485;-52
2023/10/04 04:10:03;;;;;;;0.30;0.20;;;;;;;8.84;100.00;101402.69;4978475;28;20446;-52
2023/10/04 04:12:30;;;;;;;0.30;0.20;;;;;;;8.91;100.00;101399.16;4983684;28;20493;-51
2023/10/04 04:14:56;;;;;;;0.30;0.20;;;;;;;8.75;100.00;101397.41;4987272;28;20540;-52
2023/10/04 04:17:23;;;;;;;0.30;0.20;;;;;;;8.98;100.00;101390.25;4992958;28;20565;-51
2023/10/04 04:19:49;;;;;;;0.30;0.20;;;;;;;9.02;100.00;101391.13;4993279;28;20828;-52
2023/10/04 04:22:23;;;;;;;0.30;0.20;;;;;;;8.90;100.00;101387.63;4993166;28;20914;-53
2023/10/04 04:24:50;;;;;;;0.30;0.20;;;;;;;9.10;100.00;101384.03;4993019;28;20449;-52
2023/10/04 04:27:22;;;;;;;0.30;0.20;;;;;;;9.11;100.00;101378.72;4992980;28;20469;-51
2023/10/04 04:29:56;;;;;;;0.30;0.20;;;;;;;9.27;100.00;101386.56;4987493;28;20442;-51
2023/10/04 04:32:26;;;;;;;0.30;0.20;;;;;;;9.23;100.00;101388.38;4986413;28;21067;-52
2023/10/04 04:34:54;;;;;;;0.30;0.20;;;;;;;9.28;100.00;101380.38;4993148;28;20891;-53
2023/10/04 04:37:27;;;;;;;0.30;0.20;;;;;;;9.42;100.00;101382.06;4989507;28;20486;-53
2023/10/04 04:39:53;;;;;;;0.30;0.20;;;;;;;9.27;100.00;101376.84;4992969;28;20537;-52
2023/10/04 04:42:30;;;;;;;0.30;0.20;;;;;;;9.38;100.00;101379.44;4992500;28;20549;-52
2023/10/04 04:44:56;;;;;;;0.30;0.20;;;;;;;9.27;100.00;101366.25;4983769;28;20453;-52
2023/10/04 04:47:23;;;;;;;0.30;0.20;;;;;;;9.19;100.00;101384.00;4988994;28;20564;-52
2023/10/04 04:49:49;;;;;;;0.30;0.20;;;;;;;9.33;100.00;101382.13;4992910;28;20870;-52
2023/10/04 04:52:16;;;;;;;0.30;0.20;;;;;;;9.22;100.00;101383.09;4992614;28;20497;-52
2023/10/04 04:54:43;;;;;;;0.30;0.20;;;;;;;9.34;100.00;101390.97;4992635;28;20457;-53
2023/10/04 04:57:10;;;;;;;0.30;0.20;;;;;;;9.23;100.00;101395.44;4992462;28;20481;-52
2023/10/04 04:59:37;;;;;;;0.30;0.20;;;;;;;9.19;100.00;101392.81;4992541;28;20820;-52
2023/10/04 05:02:03;;;;;;;0.30;0.20;;;;;;;9.16;100.00;101384.84;4992457;28;20454;-52
2023/10/04 05:04:30;;;;;;;0.30;0.20;;;;;;;9.38;100.00;101382.09;4992634;28;20461;-51
2023/10/04 05:06:57;;;;;;;0.30;0.20;;;;;;;9.22;100.00;101391.91;4992530;28;20459;-50
2023/10/04 05:09:24;;;;;;;0.30;0.20;;;;;;;9.41;100.00;101390.91;4982956;28;20827;-51
2023/10/04 05:11:51;;;;;;;0.30;0.20;;;;;;;9.24;100.00;101395.44;4977276;28;20591;-50
2023/10/04 05:14:18;;;;;;;0.30;0.20;;;;;;;9.28;100.00;101394.53;4988650;28;20455;-50
2023/10/04 05:16:44;;;;;;;0.30;0.20;;;;;;;9.19;100.00;101406.09;4990587;28;20453;-51
2023/10/04 05:19:13;;;;;;;0.30;0.20;;;;;;;9.27;100.00;101403.38;4992469;28;20504;-51
2023/10/04 05:21:39;;;;;;;0.30;0.20;;;;;;;9.07;100.00;101421.19;4993973;28;20504;-51
2023/10/04 05:24:10;;;;;;;0.30;0.20;;;;;;;9.24;100.00;101429.06;4996258;28;20453;-51
2023/10/04 05:26:37;;;;;;;0.30;0.20;;;;;;;9.37;100.00;101425.44;4996401;28;20457;-52
2023/10/04 05:29:04;;;;;;;0.30;0.20;;;;;;;9.53;100.00;101424.47;4996190;28;20484;-52
2023/10/04 05:31:31;;;;;;;0.30;0.20;;;;;;;9.42;100.00;101423.63;4983104;28;20485;-51
2023/10/04 05:33:58;;;;;;;0.30;0.20;;;;;;;9.37;100.00;101421.03;4995975;28;20453;-51
2023/10/04 05:36:25;;;;;;;0.30;0.20;;;;;;;9.43;100.00;101428.06;4995988;28;20954;-51
2023/10/04 05:38:51;;;;;;;0.30;0.20;;;;;;;9.30;100.00;101426.34;4992709;28;20480;-51
2023/10/04 05:41:20;;;;;;;0.30;0.20;;;;;;;9.22;100.00;101425.53;4996062;28;20456;-51
2023/10/04 05:43:46;;;;;;;0.30;0.20;;;;;;;9.16;100.00;101426.41;4995717;28;20544;-51
2023/10/04 05:46:13;;;;;;;0.30;0.20;;;;;;;9.11;100.00;101430.88;4983207;28;20544;-51
2023/10/04 05:48:40;;;;;;;0.30;0.20;;;;;;;9.07;100.00;101439.75;4995799;28;20476;-52
2023/10/04 05:51:07;;;;;;;0.30;0.20;;;;;;;8.93;100.00;101436.25;4995803;28;20449;-51
2023/10/04 05:53:34;;;;;;;0.30;0.20;;;;;;;8.87;100.00;101440.66;4995797;28;20489;-51
2023/10/04 05:56:01;;;;;;;0.30;0.20;;;;;;;9.05;100.00;101454.78;4996116;28;20454;-51
2023/10/04 05:58:27;;;;;;;0.30;0.20;;;;;;;9.15;100.00;101451.19;4995421;28;20469;-51
2023/10/04 06:00:55;;;;;;;0.30;0.20;;;;;;;9.17;100.00;101460.00;4995705;28;20456;-51
2023/10/04 06:03:22;;;;;;;0.30;0.20;;;;;;;9.27;100.00;101461.75;4995442;28;20811;-51
2023/10/04 06:05:51;;;;;;;0.30;0.20;;;;;;;9.36;100.00;101466.13;4995498;28;20467;-51
2023/10/04 06:08:18;;;;;;;0.30;0.20;;;;;;;9.43;100.00;101463.44;4995024;28;20539;-52
2023/10/04 06:10:47;;;;;;;0.30;0.20;;;;;;;9.51;100.00;101466.06;4976258;28;20557;-52
2023/10/04 06:13:17;;;;;;;0.30;0.20;;;;;;;9.52;100.00;101451.00;4990951;28;20495;-52
2023/10/04 06:15:46;;;;;;;0.30;0.20;;;;;;;9.49;100.00;101454.56;4988605;28;20951;-51
2023/10/04 06:18:13;;;;;;;0.30;0.20;;;;;;;9.49;100.00;101467.84;4995170;28;20469;-51
2023/10/04 06:20:40;;;;;;;0.30;0.20;;;;;;;9.69;100.00;101463.28;4995555;28;20461;-51
2023/10/04 06:23:12;;;;;;;0.30;0.20;;;;;;;9.68;100.00;101464.19;4995314;28;20449;-52
2023/10/04 06:25:48;;;;;;;0.30;0.20;;;;;;;9.67;100.00;101461.53;4995315;28;20446;-51
2023/10/04 06:28:15;;;;;;;0.30;0.20;;;;;;;9.85;100.00;101471.16;4995077;28;20528;-51
2023/10/04 06:30:43;;;;;;;0.30;0.20;;;;;;;10.07;100.00;101465.69;4982759;28;20482;-51
2023/10/04 06:33:11;;;;;;;0.40;0.30;;;;;;;10.18;100.00;101470.94;4994142;28;20863;-51
2023/10/04 06:35:39;;;;;;;0.30;0.20;;;;;;;10.17;100.00;101474.47;4995283;28;20453;-51
2023/10/04 06:38:08;;;;;;;0.30;0.20;;;;;;;10.39;100.00;101483.19;4991331;28;20481;-51
2023/10/04 06:40:36;;;;;;;0.30;0.20;;;;;;;10.62;100.00;101496.28;4994766;28;20449;-51
2023/10/04 06:43:04;;;;;;;0.30;0.20;;;;;;;10.71;100.00;101484.69;4994921;28;20450;-52
2023/10/04 06:45:32;;;;;;;0.30;0.20;;;;;;;10.70;100.00;101486.47;4981993;28;20557;-51
2023/10/04 06:48:00;;;;;;;0.30;0.20;;;;;;;10.89;100.00;101482.69;4994998;28;20480;-51
2023/10/04 06:50:28;;;;;;;0.30;0.20;;;;;;;11.14;100.00;101491.28;4994799;28;20446;-52
2023/10/04 06:52:57;;;;;;;0.30;0.20;;;;;;;11.17;100.00;101499.25;4994833;28;20489;-52
2023/10/04 06:55:25;;;;;;;0.30;0.20;;;;;;;11.36;100.00;101489.25;4981871;28;20599;-52
2023/10/04 06:57:53;;;;;;;0.30;0.20;;;;;;;11.62;100.00;101496.91;4994468;28;20502;-52
2023/10/04 07:00:23;;;;;;;0.30;0.20;;;;;;;11.74;100.00;101507.38;4994413;28;20836;-52
2023/10/04 07:02:53;;;;;;;0.30;0.20;;;;;;;11.88;100.00;101509.88;4994915;28;20512;-52
2023/10/04 07:05:24;;;;;;;0.30;0.20;;;;;;;11.96;100.00;101516.00;4994477;28;20454;-52
2023/10/04 07:07:51;;;;;;;0.30;0.20;;;;;;;12.24;100.00;101512.91;4994713;28;20489;-52
2023/10/04 07:10:21;;;;;;;0.30;0.20;;;;;;;12.45;100.00;101507.22;4978190;28;20940;-52
2023/10/04 07:12:51;;;;;;;0.30;0.20;;;;;;;12.40;100.00;101509.09;4987004;28;20497;-53
2023/10/04 07:15:19;;;;;;;0.40;0.20;;;;;;;12.62;100.00;101512.28;4988313;28;20477;-53
2023/10/04 07:17:49;;;;;;;0.40;0.20;;;;;;;12.86;100.00;101525.19;4994313;28;20493;-53
2023/10/04 07:20:18;;;;;;;0.40;0.20;;;;;;;12.91;100.00;101528.66;4968460;28;20462;-53
2023/10/04 07:22:47;;;;;;;0.40;0.20;;;;;;;12.87;100.00;101524.25;4976655;28;20967;-52
2023/10/04 07:25:15;;;;;;;0.40;0.20;;;;;;;12.89;100.00;101521.59;4994503;28;20492;-53
2023/10/04 07:27:43;;;;;;;0.40;0.20;;;;;;;13.05;100.00;101513.25;4994040;28;20863;-53
2023/10/04 07:30:14;;;;;;;0.40;0.20;;;;;;;13.18;100.00;101519.28;4986078;28;20450;-53
2023/10/04 07:32:42;;;;;;;0.40;0.20;;;;;;;13.22;99.30;101523.66;4989634;28;20511;-53
2023/10/04 07:35:18;;;;;;;0.40;0.30;;;;;;;13.24;99.51;101519.16;4994003;28;20519;-53
2023/10/04 07:37:49;;;;;;;0.40;0.20;;;;;;;13.33;99.31;101521.66;4991017;28;20564;-54
2023/10/04 07:40:17;;;;;;;0.40;0.20;;;;;;;13.50;99.13;101533.78;4994164;28;20449;-53
2023/10/04 07:42:45;;;;;;;0.40;0.20;;;;;;;13.72;98.98;101535.09;4993722;28;20464;-54
2023/10/04 07:45:13;;;;;;;0.40;0.20;;;;;;;13.83;99.58;101538.38;4982157;28;20454;-54
2023/10/04 07:47:41;;;;;;;0.40;0.20;;;;;;;13.93;99.84;101531.94;4992507;28;20983;-54
2023/10/04 07:50:10;;;;;;;0.40;0.20;;;;;;;13.94;98.42;101525.66;4993654;28;21010;-53
2023/10/04 07:52:41;;;;;;;0.40;0.20;;;;;;;14.04;98.79;101539.72;4993430;28;21092;-54
2023/10/04 07:55:14;;;;;;;0.40;0.20;;;;;;;14.26;97.84;101537.44;4993686;28;20490;-53
2023/10/04 07:57:44;;;;;;;0.40;0.20;;;;;;;14.40;97.94;101537.09;4993806;28;20469;-52
2023/10/04 08:00:14;;;;;;;0.40;0.20;;;;;;;14.48;97.44;101538.69;4993431;28;20532;-52
2023/10/04 08:02:51;;;;;;;0.40;0.20;;;;;;;14.49;97.63;101536.91;4993731;28;20433;-51
2023/10/04 08:05:23;;;;;;;0.40;0.20;;;;;;;14.69;97.29;101539.09;4993516;28;20500;-52
2023/10/04 08:07:55;;;;;;;0.40;0.20;;;;;;;14.93;96.70;101548.25;4993310;28;20489;-52
2023/10/04 08:10:25;;;;;;;0.40;0.20;;;;;;;14.89;96.48;101543.91;4976254;28;20425;-52
2023/10/04 08:12:54;;;;;;;0.40;0.20;;;;;;;15.04;95.56;101539.03;4985998;28;20484;-52
2023/10/04 08:15:23;;;;;;;0.40;0.20;;;;;;;15.21;95.11;101537.69;4987070;28;20455;-52
2023/10/04 08:17:51;;;;;;;0.40;0.20;;;;;;;15.17;96.07;101536.91;4993072;28;20966;-52
2023/10/04 08:20:19;;;;;;;0.40;0.20;;;;;;;15.50;94.23;101532.41;4993256;28;20500;-51
2023/10/04 08:22:45;;;;;;;0.40;0.20;;;;;;;15.56;93.84;101525.97;4993008;28;20528;-52
2023/10/04 08:25:16;;;;;;;0.40;0.20;;;;;;;15.54;93.21;101530.50;4992953;28;20424;-52
2023/10/04 08:27:43;;;;;;;1.50;1.50;;;;;;;15.51;93.60;101525.25;4992853;28;20979;-52
2023/10/04 08:30:12;;;;;;;0.40;0.20;;;;;;;15.52;93.79;101527.00;4985113;28;20768;-52
2023/10/04 08:32:43;;;;;;;0.40;0.20;;;;;;;15.38;94.03;101520.22;4988465;28;21031;-52
2023/10/04 08:35:33;;;;;;;0.40;0.20;;;;;;;15.77;92.99;101520.03;4992962;28;20450;-52
2023/10/04 08:38:03;;;;;;;0.40;0.20;;;;;;;15.66;92.63;101517.66;4990082;28;21241;-52
2023/10/04 08:40:31;;;;;;;0.40;0.20;;;;;;;15.22;93.35;101515.38;4992987;28;20449;-51
2023/10/04 08:42:58;;;;;;;0.40;0.20;;;;;;;15.56;94.10;101520.63;4992899;28;20943;-52
2023/10/04 08:45:32;;;;;;;0.40;0.20;;;;;;;15.58;92.98;101519.63;4980288;28;20956;-52
2023/10/04 08:47:58;;;;;;;0.40;0.20;;;;;;;15.85;91.87;101522.44;4992751;28;20528;-52
2023/10/04 08:50:28;;;;;;;0.40;0.20;;;;;;;15.93;91.48;101525.78;4992555;28;20504;-52
2023/10/04 08:53:10;;;;;;;0.40;0.20;;;;;;;16.10;91.47;101520.78;4992876;28;20493;-52
2023/10/04 08:55:41;;;;;;;0.40;0.20;;;;;;;16.08;91.00;101525.31;4994838;28;20481;-52
2023/10/04 08:58:09;;;;;;;0.40;0.20;;;;;;;16.36;90.15;101530.66;4996776;28;20948;-52
2023/10/04 09:00:37;;;;;;;0.40;0.20;;;;;;;16.59;89.48;101528.13;4996609;28;20970;-52
2023/10/04 09:03:04;;;;;;;0.40;0.20;;;;;;;16.75;87.60;101531.19;4996840;28;20447;-52
2023/10/04 09:05:33;;;;;;;0.40;0.20;;;;;;;16.68;86.48;101526.94;4996552;28;20918;-53
2023/10/04 09:08:01;;;;;;;0.40;0.20;;;;;;;16.68;86.40;101526.94;4996686;28;20458;-53
2023/10/04 09:10:33;;;;;;;0.40;0.20;;;;;;;16.73;85.55;101530.38;4978508;28;20484;-53
2023/10/04 09:13:03;;;;;;;0.40;0.20;;;;;;;16.96;86.44;101531.34;4990589;28;20865;-53
2023/10/04 09:15:30;;;;;;;0.40;0.20;;;;;;;16.92;85.20;101519.84;4990288;28;20440;-53
2023/10/04 09:17:57;;;;;;;0.40;0.20;;;;;;;17.20;84.37;101521.56;4996427;28;20472;-53
2023/10/04 09:20:32;;;;;;;0.40;0.20;;;;;;;17.15;83.88;101527.97;4996376;28;20486;-53
2023/10/04 09:23:00;;;;;;;0.40;0.20;;;;;;;16.91;84.15;101526.16;4996292;28;20472;-53
2023/10/04 09:25:37;;;;;;;0.40;0.20;;;;;;;17.35;82.87;101527.25;4996348;28;20456;-53
2023/10/04 09:28:04;;;;;;;0.40;0.20;;;;;;;17.42;82.88;101535.97;4995834;28;20468;-53
2023/10/04 09:30:36;;;;;;;0.40;0.20;;;;;;;17.10;83.06;101521.88;4985463;28;20532;-53
2023/10/04 09:33:23;;;;;;;0.40;0.20;;;;;;;17.17;83.08;101528.81;4994768;28;20996;-54
2023/10/04 09:35:51;;;;;;;0.40;0.20;;;;;;;17.45;82.59;101523.28;4996096;28;20859;-53
2023/10/04 09:38:22;;;;;;;0.40;0.20;;;;;;;17.69;81.95;101532.28;4992673;28;20563;-53
2023/10/04 09:40:51;;;;;;;0.40;0.20;;;;;;;17.47;83.03;101524.09;4996172;28;20464;-53
2023/10/04 09:43:30;;;;;;;0.40;0.20;;;;;;;17.72;81.73;101533.97;4996256;28;20428;-53
2023/10/04 09:45:57;;;;;;;0.40;0.20;;;;;;;17.85;81.00;101518.25;4965894;28;20514;-53
2023/10/04 09:48:30;;;;;;;0.40;0.20;;;;;;;17.36;81.89;101517.38;4995772;28;20448;-53
2023/10/04 09:51:02;;;;;;;0.40;0.20;;;;;;;17.84;81.67;101517.38;4995655;28;20445;-53
2023/10/04 09:53:31;;;;;;;0.40;0.20;;;;;;;17.82;81.97;101519.25;4995956;28;20467;-54
2023/10/04 09:56:02;;;;;;;0.40;0.20;;;;;;;18.04;80.75;101522.81;4970964;28;20453;-54
2023/10/04 09:58:31;;;;;;;0.40;0.20;;;;;;;18.04;81.11;101517.44;4995569;28;20883;-52
2023/10/04 10:01:14;;;;;;;0.40;0.20;;;;;;;18.25;79.88;101507.63;4995750;28;20545;-53
2023/10/04 10:03:49;;;;;;;0.40;0.20;;;;;;;18.45;80.02;101509.50;4995851;28;20443;-53
2023/10/04 10:06:21;;;;;;;0.40;0.20;;;;;;;18.89;79.50;101506.75;4995304;28;20449;-53
2023/10/04 10:08:55;;;;;;;0.40;0.20;;;;;;;18.49;79.39;101497.66;4990722;28;20509;-53
2023/10/04 10:11:22;;;;;;;0.40;0.20;;;;;;;17.93;81.21;101511.59;4976197;28;20425;-52
2023/10/04 10:13:49;;;;;;;0.40;0.20;;;;;;;18.10;81.45;101502.00;4995253;28;20503;-52
2023/10/04 10:16:19;;;;;;;0.40;0.20;;;;;;;18.34;80.35;101500.97;4990125;28;20487;-53
2023/10/04 10:18:49;;;;;;;0.40;0.20;;;;;;;18.59;79.68;101495.44;4995495;28;20440;-53
2023/10/04 10:21:16;;;;;;;0.40;0.20;;;;;;;18.46;79.59;101489.72;4995377;28;20498;-52
2023/10/04 10:23:56;;;;;;;0.40;0.20;;;;;;;18.58;79.46;101491.00;4995428;28;20436;-53
2023/10/04 10:26:23;;;;;;;0.40;0.20;;;;;;;18.08;80.41;101493.09;4995675;28;20524;-52
2023/10/04 10:28:59;;;;;;;0.40;0.20;;;;;;;17.91;80.03;101491.97;4995150;28;21009;-53
2023/10/04 10:31:26;;;;;;;0.40;0.20;;;;;;;18.23;80.95;101485.31;4982138;28;20452;-53
2023/10/04 10:33:56;;;;;;;0.40;0.20;;;;;;;18.67;77.70;101477.19;4995117;28;20471;-52
2023/10/04 10:36:24;;;;;;;0.40;0.20;;;;;;;18.66;77.38;101486.22;4994965;28;20843;-52
2023/10/04 10:38:52;;;;;;;0.40;0.20;;;;;;;19.08;75.10;101475.38;4991485;28;20814;-52
2023/10/04 10:41:27;;;;;;;0.40;0.20;;;;;;;19.17;74.38;101472.25;4995070;28;20428;-53
2023/10/04 10:44:33;;;;;;;0.40;0.20;;;;;;;19.28;73.18;101479.84;4994211;28;20452;-52
2023/10/04 10:47:14;;;;;;;0.40;0.20;;;;;;;19.22;72.69;101480.13;4988337;28;20910;-52
2023/10/04 10:49:59;;;;;;;0.40;0.20;;;;;;;19.52;72.27;101477.84;4973480;28;20504;-53
2023/10/04 10:52:34;;;;;;;0.40;0.20;;;;;;;19.70;72.08;101468.03;4994966;28;20449;-53
2023/10/04 10:55:05;;;;;;;0.40;0.20;;;;;;;19.70;72.91;101471.59;4994756;28;20994;-54
2023/10/04 10:57:35;;;;;;;0.40;0.20;;;;;;;19.87;72.36;101462.69;4994569;28;20565;-54
2023/10/04 11:00:11;;;;;;;0.40;0.20;;;;;;;19.79;72.83;101468.47;4994579;28;20459;-51
2023/10/04 11:02:38;;;;;;;0.40;0.20;;;;;;;19.74;72.46;101472.38;4971625;28;20942;-53
2023/10/04 11:05:06;;;;;;;0.40;0.20;;;;;;;19.44;72.82;101466.53;4994469;28;20843;-52
2023/10/04 11:07:33;;;;;;;0.40;0.20;;;;;;;19.62;70.63;101464.84;4994400;28;20479;-54
2023/10/04 11:09:59;;;;;;;0.40;0.20;;;;;;;19.53;68.54;101463.41;4980431;28;20911;-53
2023/10/04 11:12:26;;;;;;;0.40;0.20;;;;;;;19.30;67.84;101467.16;4984033;28;20511;-52
2023/10/04 11:14:53;;;;;;;0.40;0.20;;;;;;;19.27;68.20;101464.63;4987767;28;20494;-52
2023/10/04 11:17:23;;;;;;;0.40;0.20;;;;;;;19.16;67.59;101465.09;4994539;28;20454;-53
2023/10/04 11:19:52;;;;;;;0.40;0.20;;;;;;;19.26;68.72;101460.16;4993495;28;20453;-52
2023/10/04 11:22:23;;;;;;;0.40;0.20;;;;;;;19.50;69.45;101458.16;4994149;28;20475;-54
2023/10/04 11:24:50;;;;;;;0.40;0.20;;;;;;;19.36;72.67;101455.25;4994343;28;20488;-52
2023/10/04 11:27:20;;;;;;;0.40;0.20;;;;;;;19.36;71.34;101455.25;4994329;28;20474;-53
2023/10/04 11:29:52;;;;;;;0.40;0.20;;;;;;;19.44;72.44;101447.66;4971912;28;20961;-53
2023/10/04 11:32:21;;;;;;;0.40;0.20;;;;;;;19.21;69.63;101452.31;4986938;28;20528;-52
2023/10/04 11:34:48;;;;;;;0.40;0.20;;;;;;;18.96;70.31;101451.66;4993818;28;20471;-52